createdAt,value
2023-04-30T00:00:18.218Z,99.90
2023-04-30T00:05:40.903Z,99.90
2023-04-30T00:10:43.389Z,99.90
2023-04-30T00:15:46.114Z,99.90
2023-04-30T00:20:48.804Z,99.90
2023-04-30T00:25:51.538Z,99.90
2023-04-30T00:30:54.185Z,99.90
2023-04-30T00:35:56.964Z,99.90
2023-04-30T00:40:59.722Z,99.90
2023-04-30T00:46:03.944Z,99.90
2023-04-30T00:51:09.830Z,99.90
2023-04-30T00:56:16.621Z,99.90
2023-04-30T01:01:19.819Z,99.90
2023-04-30T01:06:23.065Z,99.90
2023-04-30T01:11:44.441Z,99.90
2023-04-30T01:17:16.481Z,99.90
2023-04-30T01:22:28.161Z,99.90
2023-04-30T01:27:49.742Z,99.90
2023-04-30T01:32:52.639Z,99.90
2023-04-30T01:38:10.893Z,99.90
2023-04-30T01:43:52.847Z,99.90
2023-04-30T01:48:59.786Z,99.90
2023-04-30T01:54:18.218Z,99.90
2023-04-30T01:59:21.797Z,99.90
2023-04-30T02:09:27.751Z,99.90
2023-04-30T02:14:31.873Z,99.90
2023-04-30T02:24:37.878Z,99.90
2023-04-30T02:29:40.432Z,99.90
2023-04-30T02:34:45.927Z,99.90
2023-04-30T02:39:52.392Z,99.90
2023-04-30T02:44:55.169Z,99.90
2023-04-30T02:49:57.743Z,99.90
2023-04-30T02:55:00.484Z,99.90
2023-04-30T03:00:03.793Z,99.90
2023-04-30T03:05:06.748Z,99.90
2023-04-30T03:10:09.988Z,99.90
2023-04-30T03:15:12.534Z,99.90
2023-04-30T03:20:15.094Z,99.90
2023-04-30T03:45:29.699Z,99.90
2023-04-30T03:50:32.358Z,99.90
2023-04-30T04:00:41.680Z,99.90
2023-04-30T04:05:44.857Z,99.90
2023-04-30T04:10:47.612Z,99.90
2023-04-30T04:15:50.290Z,99.90
2023-04-30T04:20:52.884Z,99.90
2023-04-30T04:25:57.545Z,99.90
2023-04-30T04:31:00.665Z,99.90
2023-04-30T04:36:03.842Z,99.90
2023-04-30T04:41:06.396Z,99.90
2023-04-30T04:46:10.091Z,99.90
2023-04-30T04:51:13.844Z,99.90
2023-04-30T04:56:16.715Z,99.90
2023-04-30T05:01:19.676Z,99.90
2023-04-30T05:06:22.958Z,99.90
2023-04-30T05:11:25.816Z,99.90
2023-04-30T05:16:28.645Z,99.90
2023-04-30T05:21:32.114Z,99.90
2023-04-30T05:26:34.606Z,99.90
2023-04-30T05:31:37.316Z,99.90
2023-04-30T05:36:39.833Z,99.40
2023-04-30T05:41:42.762Z,99.40
2023-04-30T05:46:45.466Z,99.90
2023-04-30T05:51:48.189Z,99.90
2023-04-30T05:56:50.844Z,99.90
2023-04-30T06:01:53.530Z,99.90
2023-04-30T06:06:56.344Z,99.90
2023-04-30T06:11:59.047Z,99.90
2023-04-30T06:17:02.074Z,99.90
2023-04-30T06:22:05.094Z,99.90
2023-04-30T06:27:07.675Z,99.90
2023-04-30T06:32:10.452Z,99.90
2023-04-30T06:37:12.939Z,99.90
2023-04-30T06:42:15.428Z,99.90
2023-04-30T06:47:18.055Z,99.90
2023-04-30T06:52:20.815Z,99.90
2023-04-30T06:57:23.334Z,99.90
2023-04-30T07:02:26.128Z,99.90
2023-04-30T07:07:29.017Z,99.90
2023-04-30T07:12:31.776Z,99.90
2023-04-30T07:17:35.324Z,99.90
2023-04-30T07:22:38.073Z,99.90
2023-04-30T07:27:41.003Z,99.90
2023-04-30T07:32:43.775Z,99.90
2023-04-30T07:37:46.614Z,99.90
2023-04-30T07:42:49.238Z,99.90
2023-04-30T07:47:52.720Z,99.90
2023-04-30T07:52:55.346Z,99.90
2023-04-30T07:57:58.832Z,99.90
2023-04-30T08:03:01.870Z,99.90
2023-04-30T08:08:04.886Z,99.90
2023-04-30T08:13:07.729Z,99.90
2023-04-30T08:18:10.397Z,99.90
2023-04-30T08:23:13.082Z,99.90
2023-04-30T08:28:16.208Z,99.90
2023-04-30T08:33:19.045Z,99.90
2023-04-30T08:38:21.704Z,99.90
2023-04-30T08:43:24.540Z,99.50
2023-04-30T08:48:28.383Z,94.60
2023-04-30T08:53:40.585Z,94.90
2023-04-30T08:58:43.896Z,96.90
2023-04-30T09:03:46.618Z,93.90
2023-04-30T09:08:50.351Z,94.30
2023-04-30T09:13:58.979Z,93.50
2023-04-30T09:19:04.365Z,90.90
2023-04-30T09:24:07.041Z,88.50
2023-04-30T09:29:10.447Z,91.10
2023-04-30T09:34:13.962Z,84.10
2023-04-30T09:39:18.201Z,79.40
2023-04-30T09:44:27.822Z,78.00
2023-04-30T09:49:30.582Z,77.80
2023-04-30T09:54:33.111Z,79.30
2023-04-30T09:59:37.904Z,74.50
2023-04-30T10:04:45.071Z,74.20
2023-04-30T10:10:10.103Z,77.70
2023-04-30T10:15:19.993Z,76.60
2023-04-30T10:20:24.891Z,77.00
2023-04-30T10:25:28.973Z,75.10
2023-04-30T10:30:32.814Z,73.50
2023-04-30T10:35:51.157Z,75.20
2023-04-30T10:41:03.897Z,74.00
2023-04-30T10:46:08.313Z,74.50
2023-04-30T10:51:10.967Z,74.50
2023-04-30T10:56:13.429Z,74.10
2023-04-30T11:01:17.485Z,72.00
2023-04-30T11:06:26.646Z,64.30
2023-04-30T11:11:34.179Z,72.00
2023-04-30T11:16:37.180Z,69.00
2023-04-30T11:22:03.091Z,65.40
2023-04-30T11:27:06.419Z,68.70
2023-04-30T11:32:10.978Z,70.90
2023-04-30T11:37:18.931Z,71.80
2023-04-30T11:42:22.047Z,70.80
2023-04-30T11:47:24.711Z,68.60
2023-04-30T11:52:27.375Z,69.70
2023-04-30T11:57:40.694Z,71.50
2023-04-30T12:02:45.834Z,72.20
2023-04-30T12:07:56.267Z,69.00
2023-04-30T12:12:58.935Z,68.30
2023-04-30T12:18:15.462Z,69.30
2023-04-30T12:23:19.313Z,71.60
2023-04-30T12:28:23.949Z,70.90
2023-04-30T12:33:31.446Z,68.50
2023-04-30T12:38:34.111Z,72.70
2023-04-30T12:43:36.648Z,72.30
2023-04-30T12:48:45.758Z,65.30
2023-04-30T12:53:48.376Z,67.60
2023-04-30T12:58:51.320Z,70.60
2023-04-30T13:03:54.264Z,68.20
2023-04-30T13:08:58.412Z,70.70
2023-04-30T13:14:01.660Z,70.70
2023-04-30T13:19:05.306Z,69.90
2023-04-30T13:24:17.652Z,70.00
2023-04-30T13:29:23.188Z,70.30
2023-04-30T13:34:25.678Z,73.10
2023-04-30T13:39:29.427Z,71.10
2023-04-30T13:44:33.831Z,68.80
2023-04-30T13:49:36.475Z,67.10
2023-04-30T13:54:39.317Z,63.50
2023-04-30T13:59:42.089Z,65.60
2023-04-30T14:04:51.712Z,61.40
2023-04-30T14:10:01.380Z,63.80
2023-04-30T14:15:04.383Z,65.70
2023-04-30T14:20:08.134Z,66.70
2023-04-30T14:25:10.877Z,60.50
2023-04-30T14:30:13.810Z,58.20
2023-04-30T14:35:19.005Z,59.40
2023-04-30T14:40:21.807Z,60.30
2023-04-30T14:45:24.435Z,64.20
2023-04-30T14:50:26.888Z,62.50
2023-04-30T14:55:29.496Z,64.20
2023-04-30T15:00:33.312Z,59.90
2023-04-30T15:05:36.599Z,61.00
2023-04-30T15:10:39.198Z,61.70
2023-04-30T15:15:42.245Z,61.40
2023-04-30T15:20:44.744Z,61.40
2023-04-30T15:25:47.503Z,59.80
2023-04-30T15:30:51.691Z,61.20
2023-04-30T15:35:54.964Z,61.70
2023-04-30T15:40:57.567Z,61.20
2023-04-30T15:46:00.720Z,63.80
2023-04-30T15:51:03.668Z,65.60
2023-04-30T15:56:06.404Z,61.70
2023-04-30T16:01:09.165Z,63.00
2023-04-30T16:06:11.758Z,63.70
2023-04-30T16:11:14.666Z,65.10
2023-04-30T16:16:17.497Z,65.50
2023-04-30T16:21:21.034Z,65.40
2023-04-30T16:26:23.526Z,65.40
2023-04-30T16:31:26.102Z,64.90
2023-04-30T16:36:28.645Z,65.00
2023-04-30T16:41:31.182Z,64.40
2023-04-30T16:46:33.811Z,66.80
2023-04-30T16:51:36.379Z,68.10
2023-04-30T16:56:38.830Z,68.40
2023-04-30T17:01:41.500Z,66.40
2023-04-30T17:06:44.226Z,68.20
2023-04-30T17:11:47.116Z,68.10
2023-04-30T17:16:49.650Z,69.20
2023-04-30T17:21:52.342Z,70.60
2023-04-30T17:26:55.153Z,72.20
2023-04-30T17:31:57.773Z,74.80
2023-04-30T17:37:00.584Z,74.90
2023-04-30T17:42:03.432Z,75.30
2023-04-30T17:47:07.045Z,76.00
2023-04-30T17:52:10.451Z,77.10
2023-04-30T17:57:12.983Z,78.80
2023-04-30T18:02:15.612Z,80.70
2023-04-30T18:07:18.319Z,86.20
2023-04-30T18:12:20.948Z,88.10
2023-04-30T18:17:23.963Z,91.60
2023-04-30T18:22:26.411Z,95.50
2023-04-30T18:27:29.192Z,99.00
2023-04-30T18:32:31.754Z,99.20
2023-04-30T18:37:34.474Z,99.90
2023-04-30T18:42:38.576Z,99.90
2023-04-30T18:47:41.652Z,99.90
2023-04-30T19:02:53.125Z,99.90
2023-04-30T19:07:55.820Z,99.90
2023-04-30T19:18:01.434Z,99.90
2023-04-30T19:28:06.984Z,99.90
2023-04-30T19:33:09.611Z,99.90
2023-04-30T19:43:15.571Z,99.90
2023-04-30T19:48:18.782Z,99.90
2023-04-30T19:53:22.108Z,99.90
2023-04-30T20:49:04.255Z,99.90
2023-04-30T20:59:12.011Z,99.90
2023-04-30T21:04:15.608Z,99.90
2023-04-30T21:24:30.775Z,99.90
2023-04-30T21:34:36.475Z,99.90
2023-04-30T21:39:39.035Z,99.90
2023-04-30T21:44:41.464Z,99.90
2023-04-30T21:49:44.313Z,99.90
2023-04-30T21:54:50.051Z,99.90
2023-04-30T22:15:03.748Z,99.90
2023-04-30T22:20:08.471Z,99.90
2023-04-30T22:35:18.129Z,99.90
2023-04-30T22:40:21.315Z,99.90
2023-04-30T22:55:31.225Z,99.90
2023-04-30T23:05:37.085Z,99.90
2023-04-30T23:25:50.790Z,99.90
2023-04-30T23:30:58.494Z,99.90
2023-04-30T23:36:00.937Z,99.90
2023-04-30T23:41:03.716Z,99.90
2023-04-30T23:56:14.255Z,99.90
